createdAt,value
2019-05-07T00:01:29.455Z,7.71
2019-05-07T00:04:17.108Z,7.74
2019-05-07T00:12:46.637Z,7.51
2019-05-07T00:15:54.958Z,7.41
2019-05-07T00:18:23.356Z,7.11
2019-05-07T00:21:12.629Z,6.99
2019-05-07T00:23:43.193Z,7.09
2019-05-07T00:26:13.199Z,7.09
2019-05-07T00:31:28.859Z,7.04
2019-05-07T00:37:13.124Z,6.81
2019-05-07T00:40:22.431Z,6.91
2019-05-07T00:43:28.679Z,6.82
2019-05-07T00:49:12.683Z,6.57
2019-05-07T00:52:00.210Z,6.60
2019-05-07T00:57:22.915Z,6.28
2019-05-07T00:59:52.611Z,6.22
2019-05-07T01:02:43.128Z,6.04
2019-05-07T01:08:06.154Z,6.18
2019-05-07T01:15:43.138Z,6.02
2019-05-07T01:18:32.490Z,5.95
2019-05-07T01:21:02.498Z,6.02
2019-05-07T01:23:52.187Z,5.89
2019-05-07T01:29:13.118Z,5.98
2019-05-07T01:34:35.988Z,5.88
2019-05-07T01:37:04.412Z,5.93
2019-05-07T01:39:32.935Z,5.92
2019-05-07T01:42:02.948Z,5.84
2019-05-07T01:44:32.591Z,5.88
2019-05-07T01:47:02.505Z,5.65
2019-05-07T01:49:32.972Z,5.66
2019-05-07T01:52:42.715Z,5.69
2019-05-07T01:55:52.350Z,5.48
2019-05-07T01:58:22.186Z,5.59
2019-05-07T02:01:13.059Z,5.52
2019-05-07T02:04:02.306Z,5.55
2019-05-07T02:06:49.714Z,5.40
2019-05-07T02:09:37.235Z,5.46
2019-05-07T02:14:42.261Z,5.20
2019-05-07T02:17:32.170Z,5.26
2019-05-07T02:20:02.685Z,5.21
2019-05-07T02:22:31.999Z,5.26
2019-05-07T02:25:03.073Z,5.15
2019-05-07T02:27:32.877Z,5.19
2019-05-07T02:30:04.244Z,5.25
2019-05-07T02:32:33.485Z,5.13
2019-05-07T02:35:23.317Z,5.18
2019-05-07T02:40:58.911Z,5.23
2019-05-07T02:46:36.207Z,5.17
2019-05-07T02:49:23.506Z,5.04
2019-05-07T02:52:13.528Z,5.05
2019-05-07T02:55:03.488Z,5.06
2019-05-07T02:57:49.610Z,4.85
2019-05-07T03:00:57.942Z,4.83
2019-05-07T03:03:26.337Z,4.90
2019-05-07T03:05:54.753Z,4.85
2019-05-07T03:08:43.910Z,4.80
2019-05-07T03:14:06.895Z,4.83
2019-05-07T03:16:43.498Z,4.70
2019-05-07T03:19:05.691Z,4.77
2019-05-07T03:21:54.340Z,4.80
2019-05-07T03:28:13.557Z,4.64
2019-05-07T03:31:05.266Z,4.72
2019-05-07T03:36:29.007Z,4.56
2019-05-07T03:38:57.401Z,4.63
2019-05-07T03:41:45.228Z,4.55
2019-05-07T03:47:23.832Z,4.54
2019-05-07T03:50:14.175Z,4.41
2019-05-07T03:52:42.849Z,4.42
2019-05-07T03:55:53.870Z,4.46
2019-05-07T03:59:03.632Z,4.48
2019-05-07T04:01:53.613Z,4.42
2019-05-07T04:04:43.029Z,4.51
2019-05-07T04:07:13.525Z,4.65
2019-05-07T04:12:27.869Z,4.66
2019-05-07T04:14:56.262Z,4.73
2019-05-07T04:17:43.791Z,4.68
2019-05-07T04:20:53.968Z,4.69
2019-05-07T04:23:23.374Z,4.70
2019-05-07T04:31:58.827Z,4.65
2019-05-07T04:34:46.359Z,4.83
2019-05-07T04:37:34.034Z,5.01
2019-05-07T04:43:09.009Z,5.17
2019-05-07T04:45:56.528Z,4.98
2019-05-07T04:48:44.359Z,4.92
2019-05-07T04:54:23.664Z,5.24
2019-05-07T04:57:12.870Z,5.30
2019-05-07T04:59:42.933Z,5.06
2019-05-07T05:05:03.283Z,5.18
2019-05-07T05:07:33.497Z,5.44
2019-05-07T05:10:02.768Z,5.50
2019-05-07T05:12:32.633Z,5.80
2019-05-07T05:15:02.240Z,6.16
2019-05-07T05:25:49.477Z,14.24
2019-05-07T05:28:17.885Z,15.95
2019-05-07T05:31:05.409Z,16.78
2019-05-07T05:33:33.816Z,18.48
2019-05-07T05:39:10.301Z,21.14
2019-05-07T05:44:46.947Z,23.62
2019-05-07T05:47:15.348Z,24.41
2019-05-07T05:49:43.755Z,25.00
2019-05-07T05:52:32.902Z,25.70
2019-05-07T06:00:59.311Z,26.84
2019-05-07T06:03:46.826Z,27.87
2019-05-07T06:06:34.359Z,28.70
2019-05-07T06:09:42.210Z,29.10
2019-05-07T06:12:29.831Z,29.75
2019-05-07T06:15:36.608Z,29.47
2019-05-07T06:18:24.123Z,29.96
2019-05-07T06:24:08.143Z,29.33
2019-05-07T06:29:29.612Z,30.18
2019-05-07T06:35:46.260Z,30.37
2019-05-07T06:46:38.756Z,28.81
2019-05-07T06:49:07.188Z,29.38
2019-05-07T06:51:54.858Z,28.64
2019-05-07T06:54:23.266Z,28.38
2019-05-07T06:57:12.983Z,29.01
2019-05-07T07:03:15.837Z,29.62
2019-05-07T07:06:03.363Z,30.25
2019-05-07T07:11:42.304Z,31.07
2019-05-07T07:20:12.738Z,29.31
2019-05-07T07:23:02.373Z,29.13
2019-05-07T07:25:32.590Z,27.08
2019-05-07T07:28:42.931Z,28.15
2019-05-07T07:31:31.878Z,28.87
2019-05-07T07:34:22.532Z,28.29
2019-05-07T07:37:28.394Z,28.61
2019-05-07T07:40:15.913Z,27.70
2019-05-07T07:45:37.399Z,28.73
2019-05-07T07:48:05.796Z,28.80
2019-05-07T07:50:53.334Z,27.36
2019-05-07T07:53:22.672Z,26.76
2019-05-07T07:56:45.363Z,26.72
2019-05-07T08:04:28.595Z,25.54
2019-05-07T08:07:03.325Z,24.18
2019-05-07T08:09:33.528Z,22.97
2019-05-07T08:12:02.755Z,22.00
2019-05-07T08:14:32.461Z,20.69
2019-05-07T08:17:02.868Z,20.02
2019-05-07T08:19:32.838Z,19.12
2019-05-07T08:22:02.843Z,19.20
2019-05-07T08:24:32.182Z,18.26
2019-05-07T08:27:02.344Z,18.08
2019-05-07T08:29:32.517Z,18.26
2019-05-07T08:32:09.076Z,17.72
2019-05-07T08:34:42.820Z,18.03
2019-05-07T08:37:12.050Z,18.12
2019-05-07T08:39:42.742Z,17.82
2019-05-07T08:42:12.283Z,17.93
2019-05-07T08:44:42.995Z,17.65
2019-05-07T08:47:13.094Z,17.50
2019-05-07T08:49:43.394Z,17.60
2019-05-07T08:52:12.173Z,17.19
2019-05-07T08:54:42.676Z,17.45
2019-05-07T08:57:12.153Z,17.21
2019-05-07T08:59:43.760Z,16.97
2019-05-07T09:02:12.556Z,16.90
2019-05-07T09:04:41.738Z,16.57
2019-05-07T09:07:12.823Z,16.35
2019-05-07T09:09:42.649Z,16.26
2019-05-07T09:12:12.433Z,15.49
2019-05-07T09:14:42.637Z,15.36
2019-05-07T09:17:12.754Z,15.32
2019-05-07T09:19:50.975Z,15.89
2019-05-07T09:22:12.707Z,16.13
2019-05-07T09:24:42.380Z,15.78
2019-05-07T09:27:12.699Z,16.22
2019-05-07T09:29:54.915Z,16.71
2019-05-07T09:32:32.659Z,15.95
2019-05-07T09:35:02.770Z,15.95
2019-05-07T09:37:32.729Z,15.75
2019-05-07T09:40:02.770Z,15.63
2019-05-07T09:42:33.247Z,15.59
2019-05-07T09:45:01.894Z,15.76
2019-05-07T09:47:32.429Z,16.07
2019-05-07T09:50:05.503Z,16.22
2019-05-07T09:52:32.163Z,16.04
2019-05-07T09:55:10.987Z,16.29
2019-05-07T09:57:32.491Z,16.55
2019-05-07T10:00:02.263Z,16.58
2019-05-07T10:02:32.072Z,17.01
2019-05-07T10:05:02.481Z,16.95
2019-05-07T10:07:32.527Z,16.63
2019-05-07T10:10:03.141Z,16.03
2019-05-07T10:12:33.072Z,16.27
2019-05-07T10:15:03.055Z,15.99
2019-05-07T10:17:33.281Z,15.79
2019-05-07T10:20:04.451Z,15.60
2019-05-07T10:22:32.382Z,15.83
2019-05-07T10:25:02.823Z,16.34
2019-05-07T10:27:32.418Z,16.74
2019-05-07T10:30:02.356Z,17.02
2019-05-07T10:32:32.196Z,16.82
2019-05-07T10:35:02.076Z,16.57
2019-05-07T10:37:31.884Z,16.14
2019-05-07T10:40:02.866Z,15.75
2019-05-07T10:42:32.399Z,15.78
2019-05-07T10:45:08.147Z,15.92
2019-05-07T10:47:43.978Z,15.85
2019-05-07T10:50:35.423Z,15.64
2019-05-07T10:52:54.045Z,15.63
2019-05-07T10:55:22.442Z,15.62
2019-05-07T10:57:52.813Z,15.38
2019-05-07T11:00:23.770Z,15.75
2019-05-07T11:02:52.233Z,16.08
2019-05-07T11:05:21.979Z,16.55
2019-05-07T11:07:50.431Z,16.51
2019-05-07T11:10:19.155Z,16.54
2019-05-07T11:12:47.557Z,16.21
2019-05-07T11:15:16.195Z,16.52
2019-05-07T11:17:55.446Z,16.93
2019-05-07T11:20:23.922Z,17.00
2019-05-07T11:22:52.501Z,17.27
2019-05-07T11:25:22.499Z,16.79
2019-05-07T11:27:52.338Z,16.60
2019-05-07T11:30:22.845Z,16.93
2019-05-07T11:32:52.260Z,16.93
2019-05-07T11:35:23.018Z,17.18
2019-05-07T11:37:52.043Z,16.76
2019-05-07T11:40:22.920Z,17.15
2019-05-07T11:43:08.042Z,17.25
2019-05-07T11:45:38.080Z,17.51
2019-05-07T11:48:06.567Z,17.25
2019-05-07T11:50:36.618Z,17.37
2019-05-07T11:53:09.347Z,17.28
2019-05-07T11:55:37.770Z,16.95
2019-05-07T11:58:06.155Z,16.73
2019-05-07T12:00:39.369Z,16.32
2019-05-07T12:03:07.809Z,16.19
2019-05-07T12:05:36.310Z,15.98
2019-05-07T12:08:04.872Z,16.12
2019-05-07T12:10:33.285Z,16.64
2019-05-07T12:13:02.354Z,16.84
2019-05-07T12:15:32.455Z,17.08
2019-05-07T12:18:03.078Z,17.10
2019-05-07T12:20:32.485Z,17.33
2019-05-07T12:23:02.860Z,17.76
2019-05-07T12:25:32.097Z,17.58
2019-05-07T12:28:02.481Z,16.90
2019-05-07T12:30:35.650Z,16.82
2019-05-07T12:33:17.731Z,16.61
2019-05-07T12:35:46.136Z,16.70
2019-05-07T12:38:14.566Z,16.58
2019-05-07T12:40:43.732Z,16.39
2019-05-07T12:43:12.869Z,16.32
2019-05-07T12:45:42.119Z,16.62
2019-05-07T12:48:12.149Z,16.36
2019-05-07T12:50:40.706Z,16.28
2019-05-07T12:53:12.355Z,16.72
2019-05-07T12:55:42.914Z,16.39
2019-05-07T12:58:12.647Z,16.64
2019-05-07T13:01:00.884Z,16.42
2019-05-07T13:03:32.312Z,16.62
2019-05-07T13:06:02.500Z,17.14
2019-05-07T13:08:32.906Z,17.43
2019-05-07T13:11:03.102Z,17.87
2019-05-07T13:13:32.012Z,17.66
2019-05-07T13:16:02.729Z,17.63
2019-05-07T13:18:31.150Z,17.90
2019-05-07T13:20:59.555Z,18.13
2019-05-07T13:23:27.953Z,17.91
2019-05-07T13:25:56.356Z,18.14
2019-05-07T13:28:24.755Z,18.15
2019-05-07T13:30:53.155Z,17.68
2019-05-07T13:33:22.794Z,17.89
2019-05-07T13:35:52.276Z,17.20
2019-05-07T13:38:28.022Z,17.09
2019-05-07T13:41:14.285Z,17.18
2019-05-07T13:44:02.857Z,17.57
2019-05-07T13:46:32.870Z,17.58
2019-05-07T13:49:02.114Z,17.34
2019-05-07T13:51:31.677Z,17.50
2019-05-07T13:54:02.110Z,17.49
2019-05-07T13:56:32.499Z,17.02
2019-05-07T13:59:04.657Z,16.83
2019-05-07T14:01:32.863Z,16.55
2019-05-07T14:04:03.807Z,17.01
2019-05-07T14:06:35.941Z,17.05
2019-05-07T14:09:08.447Z,16.98
2019-05-07T14:11:36.947Z,17.26
2019-05-07T14:14:05.467Z,17.41
2019-05-07T14:16:33.959Z,17.21
2019-05-07T14:19:04.199Z,17.16
2019-05-07T14:21:32.631Z,16.97
2019-05-07T14:24:01.041Z,16.67
2019-05-07T14:26:29.434Z,17.04
2019-05-07T14:28:57.838Z,16.70
2019-05-07T14:31:26.241Z,17.06
2019-05-07T14:33:56.289Z,17.05
2019-05-07T14:36:29.059Z,17.12
2019-05-07T14:38:57.469Z,17.66
2019-05-07T14:41:25.945Z,17.78
2019-05-07T14:43:55.979Z,18.02
2019-05-07T14:46:24.377Z,17.90
2019-05-07T14:48:52.788Z,17.99
2019-05-07T14:51:22.064Z,17.64
2019-05-07T14:53:50.571Z,17.62
2019-05-07T14:56:18.964Z,17.42
2019-05-07T14:58:47.448Z,16.90
2019-05-07T15:01:15.832Z,16.54
2019-05-07T15:03:44.235Z,16.72
2019-05-07T15:06:12.757Z,17.11
2019-05-07T15:08:42.903Z,17.58
2019-05-07T15:11:11.412Z,17.63
2019-05-07T15:13:39.818Z,17.67
2019-05-07T15:16:08.216Z,17.61
2019-05-07T15:18:38.253Z,17.17
2019-05-07T15:21:06.652Z,16.97
2019-05-07T15:23:36.890Z,17.00
2019-05-07T15:26:05.668Z,17.21
2019-05-07T15:28:35.283Z,17.68
2019-05-07T15:31:21.705Z,17.15
2019-05-07T15:33:52.159Z,17.39
2019-05-07T15:36:20.288Z,17.48
2019-05-07T15:38:48.935Z,17.04
2019-05-07T15:41:17.337Z,16.48
2019-05-07T15:43:46.326Z,17.00
2019-05-07T15:46:14.732Z,17.24
2019-05-07T15:48:43.135Z,17.52
2019-05-07T15:51:11.962Z,17.80
2019-05-07T15:53:44.738Z,17.95
2019-05-07T15:56:13.381Z,17.82
2019-05-07T15:58:42.551Z,17.96
2019-05-07T16:01:12.866Z,17.99
2019-05-07T16:03:43.186Z,17.78
2019-05-07T16:06:12.712Z,18.19
2019-05-07T16:08:42.976Z,18.52
2019-05-07T16:11:12.576Z,18.71
2019-05-07T16:13:52.450Z,18.60
2019-05-07T16:16:21.593Z,18.15
2019-05-07T16:19:12.491Z,18.28
2019-05-07T16:21:42.540Z,18.39
2019-05-07T16:24:12.113Z,18.47
2019-05-07T16:26:41.894Z,18.78
2019-05-07T16:29:10.365Z,18.33
2019-05-07T16:31:38.760Z,18.13
2019-05-07T16:34:07.157Z,18.35
2019-05-07T16:36:35.562Z,17.86
2019-05-07T16:39:05.663Z,17.83
2019-05-07T16:41:34.067Z,17.59
2019-05-07T16:44:02.992Z,17.97
2019-05-07T16:46:31.415Z,18.07
2019-05-07T16:48:59.811Z,17.71
2019-05-07T16:51:28.228Z,17.56
2019-05-07T16:53:56.623Z,17.29
2019-05-07T16:56:25.027Z,17.14
2019-05-07T16:58:55.064Z,17.14
2019-05-07T17:01:24.742Z,17.43
2019-05-07T17:03:57.880Z,17.34
2019-05-07T17:06:26.284Z,17.30
2019-05-07T17:09:14.216Z,17.31
2019-05-07T17:11:43.742Z,17.45
2019-05-07T17:14:13.070Z,17.22
2019-05-07T17:16:41.691Z,17.09
2019-05-07T17:19:11.832Z,17.07
2019-05-07T17:21:40.361Z,17.20
2019-05-07T17:24:08.754Z,17.27
2019-05-07T17:26:37.156Z,17.29
2019-05-07T17:29:05.652Z,17.29
2019-05-07T17:31:34.042Z,17.37
2019-05-07T17:34:02.440Z,17.23
2019-05-07T17:36:32.824Z,17.28
2019-05-07T17:39:02.780Z,17.09
2019-05-07T17:41:32.284Z,17.00
2019-05-07T17:44:02.655Z,17.07
2019-05-07T17:46:32.401Z,17.13
2019-05-07T17:49:02.527Z,17.05
2019-05-07T17:51:42.126Z,17.06
2019-05-07T17:54:13.154Z,16.94
2019-05-07T17:56:42.202Z,16.99
2019-05-07T17:59:12.240Z,16.92
2019-05-07T18:01:42.373Z,16.90
2019-05-07T18:04:10.773Z,16.81
2019-05-07T18:06:39.178Z,16.73
2019-05-07T18:09:07.659Z,16.70
2019-05-07T18:11:36.058Z,16.61
2019-05-07T18:14:04.565Z,16.59
2019-05-07T18:16:37.621Z,16.47
2019-05-07T18:19:06.029Z,16.41
2019-05-07T18:21:34.436Z,16.19
2019-05-07T18:24:13.038Z,16.02
2019-05-07T18:26:33.810Z,16.05
2019-05-07T18:29:02.545Z,15.94
2019-05-07T18:31:44.489Z,15.88
2019-05-07T18:34:12.984Z,15.66
2019-05-07T18:36:42.293Z,15.31
2019-05-07T18:39:10.808Z,14.95
2019-05-07T18:41:39.218Z,14.75
2019-05-07T18:44:12.262Z,14.62
2019-05-07T18:46:37.816Z,14.61
2019-05-07T18:49:06.285Z,14.56
2019-05-07T18:51:34.698Z,14.45
2019-05-07T18:54:03.104Z,14.40
2019-05-07T18:56:31.532Z,14.17
2019-05-07T18:59:02.022Z,14.08
2019-05-07T19:01:32.719Z,13.81
2019-05-07T19:04:02.074Z,13.84
2019-05-07T19:06:31.861Z,13.71
2019-05-07T19:09:00.327Z,13.72
2019-05-07T19:11:28.729Z,13.71
2019-05-07T19:13:57.161Z,13.62
2019-05-07T19:16:25.633Z,13.55
2019-05-07T19:18:54.050Z,13.47
2019-05-07T19:21:22.577Z,13.48
2019-05-07T19:23:52.972Z,13.34
2019-05-07T19:26:21.295Z,13.20
2019-05-07T19:28:49.700Z,13.16
2019-05-07T19:31:18.277Z,13.13
2019-05-07T19:33:46.688Z,13.14
2019-05-07T19:36:15.152Z,13.08
2019-05-07T19:38:43.556Z,13.09
2019-05-07T19:41:12.478Z,13.06
2019-05-07T19:43:42.000Z,12.98
2019-05-07T19:46:12.304Z,12.87
2019-05-07T19:48:40.656Z,12.76
2019-05-07T19:51:09.051Z,12.66
2019-05-07T19:53:37.451Z,12.56
2019-05-07T19:56:07.494Z,12.52
2019-05-07T19:58:35.898Z,12.47
2019-05-07T20:01:06.007Z,12.35
2019-05-07T20:03:34.483Z,12.28
2019-05-07T20:06:05.706Z,12.17
2019-05-07T20:08:33.785Z,12.15
2019-05-07T20:11:06.479Z,12.08
2019-05-07T20:13:34.962Z,12.12
2019-05-07T20:16:07.507Z,11.87
2019-05-07T20:18:35.911Z,11.35
2019-05-07T20:21:04.304Z,11.41
2019-05-07T20:23:32.923Z,11.54
2019-05-07T20:26:03.045Z,11.61
2019-05-07T20:28:32.596Z,11.58
2019-05-07T20:31:01.320Z,11.67
2019-05-07T20:33:29.728Z,11.82
2019-05-07T20:35:58.158Z,11.91
2019-05-07T20:38:26.523Z,12.00
2019-05-07T20:40:54.933Z,11.75
2019-05-07T20:43:23.400Z,11.82
2019-05-07T20:45:52.068Z,11.82
2019-05-07T20:48:22.504Z,11.86
2019-05-07T20:50:52.081Z,11.95
2019-05-07T20:53:22.542Z,11.97
2019-05-07T20:55:53.037Z,11.99
2019-05-07T20:58:22.204Z,11.86
2019-05-07T21:00:52.641Z,11.65
2019-05-07T21:03:23.429Z,11.56
2019-05-07T21:05:53.896Z,11.26
2019-05-07T21:08:23.007Z,10.93
2019-05-07T21:10:53.495Z,10.69
2019-05-07T21:13:30.163Z,10.74
2019-05-07T21:15:52.649Z,10.59
2019-05-07T21:18:23.216Z,10.50
2019-05-07T21:20:52.947Z,10.63
2019-05-07T21:23:23.137Z,10.61
2019-05-07T21:25:52.727Z,10.53
2019-05-07T21:28:21.687Z,10.61
2019-05-07T21:30:52.193Z,10.58
2019-05-07T21:33:22.605Z,10.46
2019-05-07T21:35:52.261Z,10.45
2019-05-07T21:38:22.292Z,10.47
2019-05-07T21:40:50.645Z,10.53
2019-05-07T21:43:19.078Z,10.38
2019-05-07T21:45:47.480Z,10.31
2019-05-07T21:48:15.874Z,10.41
2019-05-07T21:50:44.285Z,10.45
2019-05-07T21:53:14.319Z,10.47
2019-05-07T21:55:58.857Z,10.47
2019-05-07T21:58:34.187Z,10.46
2019-05-07T22:01:12.489Z,10.38
2019-05-07T22:03:43.159Z,10.07
2019-05-07T22:06:12.817Z,9.80
2019-05-07T22:08:41.301Z,9.86
2019-05-07T22:11:12.379Z,9.83
2019-05-07T22:13:43.296Z,9.90
2019-05-07T22:16:12.976Z,9.88
2019-05-07T22:18:42.677Z,9.84
2019-05-07T22:21:12.520Z,9.84
2019-05-07T22:23:42.808Z,9.75
2019-05-07T22:26:20.150Z,9.67
2019-05-07T22:28:42.009Z,9.69
2019-05-07T22:31:23.907Z,9.79
2019-05-07T22:34:09.716Z,9.83
2019-05-07T22:36:38.459Z,9.83
2019-05-07T22:39:07.287Z,9.79
2019-05-07T22:41:35.755Z,9.77
2019-05-07T22:44:04.214Z,9.63
2019-05-07T22:46:32.769Z,9.62
2019-05-07T22:49:03.150Z,9.58
2019-05-07T22:51:31.368Z,9.45
2019-05-07T22:53:59.759Z,9.42
2019-05-07T22:56:35.107Z,9.37
2019-05-07T22:58:59.907Z,9.40
2019-05-07T23:01:28.312Z,9.39
2019-05-07T23:03:56.709Z,9.31
2019-05-07T23:06:25.112Z,9.20
2019-05-07T23:08:53.503Z,9.08
2019-05-07T23:11:22.849Z,9.00
2019-05-07T23:13:54.381Z,8.95
2019-05-07T23:16:23.195Z,8.98
2019-05-07T23:18:51.745Z,9.00
2019-05-07T23:21:24.277Z,9.00
2019-05-07T23:23:52.604Z,8.91
2019-05-07T23:26:23.168Z,8.78
2019-05-07T23:28:51.936Z,8.77
2019-05-07T23:31:22.688Z,8.69
2019-05-07T23:33:52.273Z,8.64
2019-05-07T23:36:22.472Z,8.55
2019-05-07T23:38:52.087Z,8.56
2019-05-07T23:41:22.440Z,8.51
2019-05-07T23:44:08.655Z,8.55
2019-05-07T23:46:37.065Z,8.53
2019-05-07T23:49:05.457Z,8.45
2019-05-07T23:51:33.864Z,8.38
2019-05-07T23:54:02.841Z,8.30
2019-05-07T23:56:32.907Z,8.23
2019-05-07T23:59:01.374Z,8.20
